createdAt,value
2023-02-14T00:02:32.692Z,17.85
2023-02-14T00:06:35.732Z,17.27
2023-02-14T00:10:37.245Z,16.92
2023-02-14T00:14:57.380Z,17.17
2023-02-14T00:19:04.757Z,17.10
2023-02-14T00:27:07.978Z,14.77
2023-02-14T00:31:09.661Z,15.98
2023-02-14T00:35:12.247Z,14.60
2023-02-14T00:39:15.099Z,15.50
2023-02-14T00:43:17.168Z,15.05
2023-02-14T00:47:18.640Z,14.80
2023-02-14T00:51:20.894Z,14.93
2023-02-14T00:55:22.573Z,14.60
2023-02-14T00:59:24.540Z,15.25
2023-02-14T01:03:26.574Z,14.25
2023-02-14T01:07:28.388Z,15.25
2023-02-14T01:11:30.462Z,15.38
2023-02-14T01:15:32.460Z,14.00
2023-02-14T01:19:33.946Z,16.38
2023-02-14T01:23:35.943Z,17.45
2023-02-14T01:27:37.816Z,15.30
2023-02-14T01:31:39.789Z,17.60
2023-02-14T01:35:41.264Z,14.50
2023-02-14T01:39:42.922Z,18.42
2023-02-14T01:43:59.932Z,17.70
2023-02-14T01:48:01.849Z,17.25
2023-02-14T01:52:17.662Z,16.13
2023-02-14T01:56:25.944Z,16.65
2023-02-14T02:00:46.738Z,15.30
2023-02-14T02:04:48.401Z,13.98
2023-02-14T02:09:25.866Z,13.57
2023-02-14T02:13:27.303Z,14.45
2023-02-14T02:17:35.649Z,14.07
2023-02-14T02:22:01.932Z,14.68
2023-02-14T02:26:28.700Z,14.90
2023-02-14T02:30:40.024Z,13.77
2023-02-14T02:35:00.325Z,13.75
2023-02-14T02:39:29.978Z,15.57
2023-02-14T02:43:49.708Z,12.48
2023-02-14T02:48:07.914Z,15.05
2023-02-14T02:52:42.539Z,14.07
2023-02-14T02:56:51.495Z,12.32
2023-02-14T03:00:53.970Z,14.43
2023-02-14T03:04:58.260Z,13.93
2023-02-14T03:09:28.212Z,13.95
2023-02-14T03:13:52.389Z,12.90
2023-02-14T03:18:08.770Z,13.38
2023-02-14T03:22:55.256Z,13.67
2023-02-14T03:27:27.785Z,12.90
2023-02-14T03:31:38.039Z,14.55
2023-02-14T03:35:48.549Z,14.27
2023-02-14T03:40:04.402Z,14.13
2023-02-14T03:44:10.308Z,13.48
2023-02-14T03:48:13.916Z,13.50
2023-02-14T03:52:16.542Z,13.82
2023-02-14T03:56:36.250Z,12.32
2023-02-14T04:00:41.174Z,12.10
2023-02-14T04:04:45.874Z,11.98
2023-02-14T04:08:48.013Z,12.77
2023-02-14T04:12:49.907Z,12.52
2023-02-14T04:17:17.454Z,13.50
2023-02-14T04:21:19.143Z,12.23
2023-02-14T04:25:21.760Z,13.60
2023-02-14T04:29:23.466Z,14.00
2023-02-14T04:33:24.876Z,17.98
2023-02-14T04:37:26.321Z,12.15
2023-02-14T04:41:27.746Z,12.13
2023-02-14T04:45:29.672Z,12.85
2023-02-14T04:49:31.592Z,13.27
2023-02-14T04:53:33.092Z,13.07
2023-02-14T04:57:34.859Z,13.15
2023-02-14T05:01:36.442Z,14.40
2023-02-14T05:05:37.880Z,15.23
2023-02-14T05:09:39.912Z,16.35
2023-02-14T05:13:43.412Z,14.20
2023-02-14T05:17:45.437Z,15.88
2023-02-14T05:21:47.939Z,15.30
2023-02-14T05:25:51.794Z,16.15
2023-02-14T05:29:53.345Z,17.02
2023-02-14T05:33:54.839Z,16.90
2023-02-14T05:37:56.538Z,15.85
2023-02-14T05:41:59.415Z,15.35
2023-02-14T05:46:01.358Z,16.63
2023-02-14T05:50:03.446Z,15.82
2023-02-14T05:54:05.548Z,15.77
2023-02-14T05:58:07.877Z,14.75
2023-02-14T06:02:09.991Z,14.60
2023-02-14T06:06:12.027Z,16.85
2023-02-14T06:10:14.036Z,14.45
2023-02-14T06:14:15.972Z,16.83
2023-02-14T06:18:17.684Z,18.23
2023-02-14T06:22:19.094Z,17.70
2023-02-14T06:26:22.243Z,14.95
2023-02-14T06:30:23.887Z,17.77
2023-02-14T06:34:25.378Z,16.75
2023-02-14T06:38:27.388Z,16.15
2023-02-14T06:42:28.878Z,17.55
2023-02-14T06:46:30.625Z,17.52
2023-02-14T06:50:32.751Z,17.77
2023-02-14T06:54:34.240Z,17.88
2023-02-14T06:58:35.929Z,18.13
2023-02-14T07:02:37.547Z,17.13
2023-02-14T07:06:39.253Z,18.98
2023-02-14T07:10:40.794Z,18.85
2023-02-14T07:14:42.793Z,19.30
2023-02-14T07:18:44.300Z,19.00
2023-02-14T07:22:45.841Z,18.98
2023-02-14T07:26:47.376Z,16.88
2023-02-14T07:30:49.113Z,17.23
2023-02-14T07:34:51.574Z,17.30
2023-02-14T07:38:53.344Z,17.65
2023-02-14T07:42:56.306Z,20.17
2023-02-14T07:46:57.782Z,24.73
2023-02-14T07:51:00.079Z,27.10
2023-02-14T07:55:02.255Z,31.67
2023-02-14T07:59:04.011Z,27.02
2023-02-14T08:03:05.400Z,25.30
2023-02-14T08:07:07.106Z,26.55
2023-02-14T08:11:08.620Z,22.52
2023-02-14T08:15:29.400Z,23.75
2023-02-14T08:19:31.095Z,25.30
2023-02-14T08:23:32.855Z,22.38
2023-02-14T08:27:34.816Z,24.27
2023-02-14T08:31:37.610Z,21.13
2023-02-14T08:35:39.147Z,22.63
2023-02-14T08:39:41.806Z,20.83
2023-02-14T08:43:43.650Z,22.20
2023-02-14T08:47:45.165Z,21.88
2023-02-14T08:51:47.260Z,23.33
2023-02-14T08:55:49.150Z,22.98
2023-02-14T08:59:51.210Z,25.75
2023-02-14T09:03:53.065Z,21.33
2023-02-14T09:07:57.788Z,22.10
2023-02-14T09:12:04.041Z,25.00
2023-02-14T09:16:06.881Z,22.73
2023-02-14T09:20:13.852Z,23.45
2023-02-14T09:24:15.260Z,24.35
2023-02-14T09:28:16.791Z,21.88
2023-02-14T09:32:19.137Z,21.33
2023-02-14T09:36:22.237Z,22.50
2023-02-14T09:40:24.188Z,21.30
2023-02-14T09:44:52.637Z,19.83
2023-02-14T09:48:54.785Z,18.05
2023-02-14T09:52:58.812Z,18.40
2023-02-14T09:57:07.628Z,18.10
2023-02-14T10:01:16.697Z,15.93
2023-02-14T10:05:47.504Z,14.98
2023-02-14T10:10:11.554Z,15.30
2023-02-14T10:14:17.784Z,16.05
2023-02-14T10:18:29.052Z,15.93
2023-02-14T10:22:40.284Z,15.63
2023-02-14T10:26:42.353Z,14.85
2023-02-14T10:30:50.869Z,14.52
2023-02-14T10:34:55.617Z,14.13
2023-02-14T10:39:22.783Z,15.40
2023-02-14T10:43:52.718Z,14.93
2023-02-14T10:48:18.173Z,12.40
2023-02-14T10:52:26.841Z,14.02
2023-02-14T10:56:35.271Z,13.38
2023-02-14T11:00:45.660Z,13.40
2023-02-14T11:04:48.957Z,13.13
2023-02-14T11:08:50.702Z,11.80
2023-02-14T11:12:52.707Z,13.57
2023-02-14T11:16:56.960Z,13.10
2023-02-14T11:21:12.544Z,12.25
2023-02-14T11:25:22.102Z,14.23
2023-02-14T11:29:27.630Z,12.77
2023-02-14T11:33:40.176Z,14.93
2023-02-14T11:37:51.192Z,12.65
2023-02-14T11:41:57.685Z,14.07
2023-02-14T11:46:41.388Z,14.23
2023-02-14T11:51:02.147Z,13.80
2023-02-14T11:55:04.889Z,13.43
2023-02-14T11:59:06.362Z,13.52
2023-02-14T12:03:18.560Z,15.23
2023-02-14T12:07:25.480Z,14.30
2023-02-14T12:11:29.250Z,13.60
2023-02-14T12:15:36.771Z,14.20
2023-02-14T12:20:01.007Z,13.18
2023-02-14T12:24:25.611Z,12.88
2023-02-14T12:28:40.635Z,13.90
2023-02-14T12:32:53.172Z,14.45
2023-02-14T12:37:16.256Z,13.25
2023-02-14T12:41:24.436Z,12.50
2023-02-14T12:45:43.519Z,12.20
2023-02-14T12:50:10.106Z,12.65
2023-02-14T12:54:33.756Z,12.65
2023-02-14T12:58:45.278Z,11.02
2023-02-14T13:03:11.680Z,12.35
2023-02-14T13:08:00.529Z,11.45
2023-02-14T13:12:01.955Z,12.65
2023-02-14T13:16:41.824Z,12.27
2023-02-14T13:20:51.376Z,12.77
2023-02-14T13:25:06.634Z,12.95
2023-02-14T13:29:15.162Z,12.52
2023-02-14T13:33:25.687Z,14.32
2023-02-14T13:37:28.864Z,12.90
2023-02-14T13:41:31.359Z,13.15
2023-02-14T13:45:35.898Z,12.82
2023-02-14T13:49:39.910Z,11.65
2023-02-14T13:53:48.815Z,12.80
2023-02-14T13:58:06.410Z,12.32
2023-02-14T14:07:03.079Z,16.35
2023-02-14T14:11:11.138Z,14.73
2023-02-14T14:15:15.265Z,14.32
2023-02-14T14:19:17.111Z,14.32
2023-02-14T14:23:34.395Z,14.45
2023-02-14T14:27:41.459Z,15.55
2023-02-14T14:31:43.403Z,16.00
2023-02-14T14:36:03.083Z,25.42
2023-02-14T14:40:25.085Z,22.77
2023-02-14T14:44:26.922Z,15.98
2023-02-14T14:48:35.556Z,13.95
2023-02-14T14:52:42.053Z,15.07
2023-02-14T14:56:59.322Z,19.02
2023-02-14T15:01:01.601Z,16.52
2023-02-14T15:05:22.792Z,15.45
2023-02-14T15:09:33.352Z,16.60
2023-02-14T15:13:50.999Z,17.30
2023-02-14T15:17:52.562Z,16.50
2023-02-14T15:21:54.084Z,17.35
2023-02-14T15:25:56.322Z,15.90
2023-02-14T15:30:00.706Z,16.85
2023-02-14T15:34:03.423Z,16.23
2023-02-14T15:38:06.094Z,17.70
2023-02-14T15:42:25.827Z,17.30
2023-02-14T15:46:33.649Z,18.00
2023-02-14T15:54:39.443Z,18.88
2023-02-14T15:58:40.961Z,18.92
2023-02-14T16:02:45.544Z,18.02
2023-02-14T16:07:04.632Z,19.95
2023-02-14T16:11:27.545Z,17.92
2023-02-14T16:15:32.004Z,18.73
